Terminal Aerodrome Forecast
Issued by NWS La Crosse, WI

Home | Current Version | Previous Version | Text Only | Print | Product List | Glossary On
Versions: 1 2 3 4 5 6 7 8 9 10 11 12 13
000
FTUS43 KARX 270520
TAFRST
TAF
KRST 270520Z 2706/2806 13005KT P6SM VCSH OVC080
     FM271100 11005KT P6SM OVC025
     FM271300 12007KT P6SM BKN008 OVC015
     FM271700 16007KT P6SM OVC015
     FM272000 19006KT P6SM BKN035
     FM272200 20006KT P6SM SCT150
     FM280400 21004KT 6SM BR SCT130=

USA.gov is the U.S. government's official web portal to all federal, state and local government web resources and services.